sensor_id;sensor_type;location;lat;lon;timestamp;pressure;altitude;pressure_sealevel;temperature;humidity
56821;BME280;42702;50.178;20.992;2022-10-28T00:01:26;100508.70;;;11.57;76.92
56821;BME280;42702;50.178;20.992;2022-10-28T00:03:57;100507.27;;;11.56;77.01
56821;BME280;42702;50.178;20.992;2022-10-28T00:06:35;100504.30;;;11.54;76.86
56821;BME280;42702;50.178;20.992;2022-10-28T00:09:03;100500.42;;;11.51;77.03
56821;BME280;42702;50.178;20.992;2022-10-28T00:11:38;100502.31;;;11.49;76.69
56821;BME280;42702;50.178;20.992;2022-10-28T00:14:08;100502.48;;;11.48;76.58
56821;BME280;42702;50.178;20.992;2022-10-28T00:16:36;100498.25;;;11.43;76.36
56821;BME280;42702;50.178;20.992;2022-10-28T00:19:06;100495.36;;;11.34;76.56
56821;BME280;42702;50.178;20.992;2022-10-28T00:21:36;100497.61;;;11.33;76.99
56821;BME280;42702;50.178;20.992;2022-10-28T00:24:06;100498.30;;;11.33;77.08
56821;BME280;42702;50.178;20.992;2022-10-28T00:26:36;100498.33;;;11.34;76.91
56821;BME280;42702;50.178;20.992;2022-10-28T00:29:14;100498.33;;;11.34;77.06
56821;BME280;42702;50.178;20.992;2022-10-28T00:31:43;100494.71;;;11.39;76.76
56821;BME280;42702;50.178;20.992;2022-10-28T00:34:16;100493.50;;;11.40;76.92
56821;BME280;42702;50.178;20.992;2022-10-28T00:36:46;100487.18;;;11.37;76.96
56821;BME280;42702;50.178;20.992;2022-10-28T00:39:20;100489.09;;;11.37;76.95
56821;BME280;42702;50.178;20.992;2022-10-28T00:41:51;100484.21;;;11.37;77.04
56821;BME280;42702;50.178;20.992;2022-10-28T00:49:48;100473.14;;;11.30;76.51
56821;BME280;42702;50.178;20.992;2022-10-28T00:52:21;100473.52;;;11.32;76.51
56821;BME280;42702;50.178;20.992;2022-10-28T00:54:51;100470.52;;;11.31;76.44
56821;BME280;42702;50.178;20.992;2022-10-28T00:57:24;100469.43;;;11.25;76.50
56821;BME280;42702;50.178;20.992;2022-10-28T00:59:57;100469.21;;;11.21;76.39
56821;BME280;42702;50.178;20.992;2022-10-28T01:02:27;100463.52;;;11.11;76.18
56821;BME280;42702;50.178;20.992;2022-10-28T01:04:55;100463.10;;;11.05;76.42
56821;BME280;42702;50.178;20.992;2022-10-28T01:07:23;100462.02;;;11.02;76.27
56821;BME280;42702;50.178;20.992;2022-10-28T01:09:52;100461.30;;;11.00;76.17
56821;BME280;42702;50.178;20.992;2022-10-28T01:29:48;100454.36;;;10.74;76.35
56821;BME280;42702;50.178;20.992;2022-10-28T01:32:32;100453.52;;;10.76;76.20
56821;BME280;42702;50.178;20.992;2022-10-28T01:43:25;100447.39;;;10.74;76.64
56821;BME280;42702;50.178;20.992;2022-10-28T01:46:36;100452.05;;;10.71;76.65
56821;BME280;42702;50.178;20.992;2022-10-28T01:49:20;100445.77;;;10.70;76.41
56821;BME280;42702;50.178;20.992;2022-10-28T01:51:54;100445.29;;;10.73;76.68
56821;BME280;42702;50.178;20.992;2022-10-28T01:54:24;100440.40;;;10.73;76.62
56821;BME280;42702;50.178;20.992;2022-10-28T01:56:54;100434.79;;;10.71;76.76
56821;BME280;42702;50.178;20.992;2022-10-28T01:59:26;100431.45;;;10.68;76.90
56821;BME280;42702;50.178;20.992;2022-10-28T02:01:56;100427.39;;;10.64;76.93
56821;BME280;42702;50.178;20.992;2022-10-28T02:04:24;100424.21;;;10.63;77.12
56821;BME280;42702;50.178;20.992;2022-10-28T02:06:54;100425.30;;;10.65;76.92
56821;BME280;42702;50.178;20.992;2022-10-28T02:09:38;100423.35;;;10.62;77.02
56821;BME280;42702;50.178;20.992;2022-10-28T02:12:32;100425.60;;;10.61;77.06
56821;BME280;42702;50.178;20.992;2022-10-28T02:18:22;100418.50;;;10.65;77.22
56821;BME280;42702;50.178;20.992;2022-10-28T02:31:28;100410.15;;;10.65;76.89
56821;BME280;42702;50.178;20.992;2022-10-28T02:34:04;100410.14;;;10.65;76.90
56821;BME280;42702;50.178;20.992;2022-10-28T02:36:38;100408.30;;;10.57;76.31
56821;BME280;42702;50.178;20.992;2022-10-28T02:39:07;100407.31;;;10.48;76.37
56821;BME280;42702;50.178;20.992;2022-10-28T02:41:54;100411.60;;;10.43;76.25
56821;BME280;42702;50.178;20.992;2022-10-28T02:44:30;100410.51;;;10.39;75.93
56821;BME280;42702;50.178;20.992;2022-10-28T02:47:06;100407.68;;;10.36;75.91
56821;BME280;42702;50.178;20.992;2022-10-28T02:49:38;100405.13;;;10.29;75.82
56821;BME280;42702;50.178;20.992;2022-10-28T02:52:09;100403.84;;;10.26;76.02
56821;BME280;42702;50.178;20.992;2022-10-28T02:54:52;100404.50;;;10.22;75.77
56821;BME280;42702;50.178;20.992;2022-10-28T02:57:31;100403.15;;;10.13;75.72
56821;BME280;42702;50.178;20.992;2022-10-28T03:00:04;100399.73;;;10.05;75.80
56821;BME280;42702;50.178;20.992;2022-10-28T03:02:34;100395.81;;;10.00;75.92
56821;BME280;42702;50.178;20.992;2022-10-28T03:05:04;100392.29;;;9.97;75.95
56821;BME280;42702;50.178;20.992;2022-10-28T03:07:32;100384.83;;;9.99;76.03
56821;BME280;42702;50.178;20.992;2022-10-28T03:10:01;100381.20;;;10.00;76.20
56821;BME280;42702;50.178;20.992;2022-10-28T03:12:29;100380.00;;;10.02;76.44
56821;BME280;42702;50.178;20.992;2022-10-28T03:14:57;100379.70;;;10.04;76.44
56821;BME280;42702;50.178;20.992;2022-10-28T03:17:26;100377.80;;;10.06;76.39
56821;BME280;42702;50.178;20.992;2022-10-28T03:19:54;100374.32;;;10.07;76.37
56821;BME280;42702;50.178;20.992;2022-10-28T03:22:22;100374.14;;;10.06;76.25
56821;BME280;42702;50.178;20.992;2022-10-28T03:24:50;100373.61;;;10.05;75.97
56821;BME280;42702;50.178;20.992;2022-10-28T03:27:18;100374.52;;;10.08;75.75
56821;BME280;42702;50.178;20.992;2022-10-28T03:29:46;100372.92;;;10.06;75.83
56821;BME280;42702;50.178;20.992;2022-10-28T03:32:14;100369.75;;;10.04;76.07
56821;BME280;42702;50.178;20.992;2022-10-28T03:34:42;100370.45;;;10.05;76.05
56821;BME280;42702;50.178;20.992;2022-10-28T03:37:10;100366.45;;;10.04;75.96
56821;BME280;42702;50.178;20.992;2022-10-28T03:39:38;100369.06;;;10.03;75.94
56821;BME280;42702;50.178;20.992;2022-10-28T03:42:06;100367.64;;;10.02;75.96
56821;BME280;42702;50.178;20.992;2022-10-28T03:44:34;100370.92;;;10.01;75.94
56821;BME280;42702;50.178;20.992;2022-10-28T03:47:02;100370.73;;;10.00;75.69
56821;BME280;42702;50.178;20.992;2022-10-28T03:49:30;100371.31;;;10.03;75.52
56821;BME280;42702;50.178;20.992;2022-10-28T03:51:58;100372.12;;;9.99;75.90
56821;BME280;42702;50.178;20.992;2022-10-28T03:54:26;100372.61;;;9.96;76.11
56821;BME280;42702;50.178;20.992;2022-10-28T03:56:54;100373.84;;;9.98;76.36
56821;BME280;42702;50.178;20.992;2022-10-28T03:59:22;100370.02;;;9.98;76.43
56821;BME280;42702;50.178;20.992;2022-10-28T04:01:50;100366.02;;;9.99;76.46
56821;BME280;42702;50.178;20.992;2022-10-28T04:04:18;100369.99;;;9.97;76.12
56821;BME280;42702;50.178;20.992;2022-10-28T04:06:47;100369.85;;;9.99;76.24
56821;BME280;42702;50.178;20.992;2022-10-28T04:09:15;100368.45;;;9.97;76.10
56821;BME280;42702;50.178;20.992;2022-10-28T04:11:43;100365.95;;;9.95;76.14
56821;BME280;42702;50.178;20.992;2022-10-28T04:14:14;100367.85;;;9.92;76.02
56821;BME280;42702;50.178;20.992;2022-10-28T04:16:42;100366.24;;;9.89;75.76
56821;BME280;42702;50.178;20.992;2022-10-28T04:19:10;100371.49;;;9.81;75.49
56821;BME280;42702;50.178;20.992;2022-10-28T04:21:38;100368.23;;;9.71;75.29
56821;BME280;42702;50.178;20.992;2022-10-28T04:24:06;100367.19;;;9.60;75.26
56821;BME280;42702;50.178;20.992;2022-10-28T04:26:34;100363.42;;;9.53;75.34
56821;BME280;42702;50.178;20.992;2022-10-28T04:29:02;100362.46;;;9.47;75.33
56821;BME280;42702;50.178;20.992;2022-10-28T04:31:31;100361.33;;;9.42;74.81
56821;BME280;42702;50.178;20.992;2022-10-28T04:33:59;100364.14;;;9.33;74.89
56821;BME280;42702;50.178;20.992;2022-10-28T04:36:27;100357.20;;;9.24;75.29
56821;BME280;42702;50.178;20.992;2022-10-28T04:38:55;100350.52;;;9.20;75.37
56821;BME280;42702;50.178;20.992;2022-10-28T04:41:23;100345.60;;;9.17;75.36
56821;BME280;42702;50.178;20.992;2022-10-28T04:43:51;100346.92;;;9.12;75.39
56821;BME280;42702;50.178;20.992;2022-10-28T04:46:19;100341.97;;;9.07;75.39
56821;BME280;42702;50.178;20.992;2022-10-28T04:48:47;100343.42;;;9.02;75.66
56821;BME280;42702;50.178;20.992;2022-10-28T04:51:15;100341.74;;;9.05;75.56
56821;BME280;42702;50.178;20.992;2022-10-28T04:53:43;100343.80;;;9.03;75.49
56821;BME280;42702;50.178;20.992;2022-10-28T04:56:11;100344.61;;;9.00;75.46
56821;BME280;42702;50.178;20.992;2022-10-28T04:58:40;100344.02;;;8.96;75.66
56821;BME280;42702;50.178;20.992;2022-10-28T05:01:09;100349.94;;;8.96;75.68
56821;BME280;42702;50.178;20.992;2022-10-28T05:03:37;100347.16;;;8.97;75.87
56821;BME280;42702;50.178;20.992;2022-10-28T05:06:05;100350.13;;;8.98;75.76
56821;BME280;42702;50.178;20.992;2022-10-28T05:08:33;100351.70;;;8.98;75.76
56821;BME280;42702;50.178;20.992;2022-10-28T05:11:01;100347.49;;;8.96;75.54
56821;BME280;42702;50.178;20.992;2022-10-28T05:13:29;100345.09;;;8.98;75.10
56821;BME280;42702;50.178;20.992;2022-10-28T05:15:57;100342.81;;;8.97;75.60
56821;BME280;42702;50.178;20.992;2022-10-28T05:18:26;100343.56;;;8.99;75.83
56821;BME280;42702;50.178;20.992;2022-10-28T05:20:54;100339.44;;;9.02;76.00
56821;BME280;42702;50.178;20.992;2022-10-28T05:23:22;100334.13;;;9.06;76.54
56821;BME280;42702;50.178;20.992;2022-10-28T05:25:56;100334.55;;;9.12;76.52
56821;BME280;42702;50.178;20.992;2022-10-28T05:28:24;100339.20;;;9.18;76.48
56821;BME280;42702;50.178;20.992;2022-10-28T05:30:53;100342.14;;;9.18;75.95
56821;BME280;42702;50.178;20.992;2022-10-28T05:33:21;100342.40;;;9.13;76.32
56821;BME280;42702;50.178;20.992;2022-10-28T05:35:49;100345.92;;;9.16;76.70
56821;BME280;42702;50.178;20.992;2022-10-28T05:38:18;100349.11;;;9.19;76.37
56821;BME280;42702;50.178;20.992;2022-10-28T05:40:46;100346.16;;;9.19;76.56
56821;BME280;42702;50.178;20.992;2022-10-28T05:43:14;100343.75;;;9.21;76.78
56821;BME280;42702;50.178;20.992;2022-10-28T05:45:42;100344.16;;;9.25;76.36
56821;BME280;42702;50.178;20.992;2022-10-28T05:48:10;100344.21;;;9.27;76.11
56821;BME280;42702;50.178;20.992;2022-10-28T05:50:38;100347.91;;;9.30;76.67
56821;BME280;42702;50.178;20.992;2022-10-28T05:53:06;100348.18;;;9.36;76.88
56821;BME280;42702;50.178;20.992;2022-10-28T05:55:34;100354.00;;;9.41;77.11
56821;BME280;42702;50.178;20.992;2022-10-28T05:58:02;100358.23;;;9.44;77.07
56821;BME280;42702;50.178;20.992;2022-10-28T06:00:31;100350.80;;;9.48;77.03
56821;BME280;42702;50.178;20.992;2022-10-28T06:03:04;100351.82;;;9.57;76.84
56821;BME280;42702;50.178;20.992;2022-10-28T06:05:45;100350.15;;;9.61;76.99
56821;BME280;42702;50.178;20.992;2022-10-28T06:08:13;100347.24;;;9.64;77.10
56821;BME280;42702;50.178;20.992;2022-10-28T06:10:49;100345.22;;;9.69;77.04
56821;BME280;42702;50.178;20.992;2022-10-28T06:13:17;100343.70;;;9.73;77.12
56821;BME280;42702;50.178;20.992;2022-10-28T06:15:53;100346.55;;;9.77;77.14
56821;BME280;42702;50.178;20.992;2022-10-28T06:18:22;100351.64;;;9.80;77.06
56821;BME280;42702;50.178;20.992;2022-10-28T06:20:55;100351.06;;;9.87;76.94
56821;BME280;42702;50.178;20.992;2022-10-28T06:23:25;100350.42;;;9.92;77.13
56821;BME280;42702;50.178;20.992;2022-10-28T06:25:57;100346.13;;;9.96;77.26
56821;BME280;42702;50.178;20.992;2022-10-28T06:28:31;100348.09;;;9.99;77.27
56821;BME280;42702;50.178;20.992;2022-10-28T06:31:06;100354.23;;;10.03;77.14
56821;BME280;42702;50.178;20.992;2022-10-28T06:33:35;100355.66;;;10.04;77.16
56821;BME280;42702;50.178;20.992;2022-10-28T06:36:04;100356.02;;;10.06;77.12
56821;BME280;42702;50.178;20.992;2022-10-28T06:38:33;100360.83;;;10.13;76.91
56821;BME280;42702;50.178;20.992;2022-10-28T06:41:01;100368.51;;;10.14;77.02
56821;BME280;42702;50.178;20.992;2022-10-28T06:43:29;100363.27;;;10.14;76.99
56821;BME280;42702;50.178;20.992;2022-10-28T06:46:02;100360.33;;;10.15;77.28
56821;BME280;42702;50.178;20.992;2022-10-28T06:48:30;100362.63;;;10.18;77.40
56821;BME280;42702;50.178;20.992;2022-10-28T06:50:59;100364.73;;;10.19;77.39
56821;BME280;42702;50.178;20.992;2022-10-28T06:53:28;100365.65;;;10.22;77.46
56821;BME280;42702;50.178;20.992;2022-10-28T06:55:57;100359.66;;;10.30;77.36
56821;BME280;42702;50.178;20.992;2022-10-28T06:58:25;100355.55;;;10.33;77.43
56821;BME280;42702;50.178;20.992;2022-10-28T07:01:02;100354.53;;;10.36;77.33
56821;BME280;42702;50.178;20.992;2022-10-28T07:03:45;100347.23;;;10.39;77.55
56821;BME280;42702;50.178;20.992;2022-10-28T07:06:15;100353.39;;;10.43;77.72
56821;BME280;42702;50.178;20.992;2022-10-28T07:08:43;100349.95;;;10.47;77.67
56821;BME280;42702;50.178;20.992;2022-10-28T07:11:11;100345.14;;;10.52;77.59
56821;BME280;42702;50.178;20.992;2022-10-28T07:13:39;100346.47;;;10.62;77.56
56821;BME280;42702;50.178;20.992;2022-10-28T07:16:10;100351.73;;;10.65;77.54
56821;BME280;42702;50.178;20.992;2022-10-28T07:18:38;100355.59;;;10.68;77.72
56821;BME280;42702;50.178;20.992;2022-10-28T07:21:06;100355.48;;;10.72;77.75
56821;BME280;42702;50.178;20.992;2022-10-28T07:23:34;100354.64;;;10.75;77.79
56821;BME280;42702;50.178;20.992;2022-10-28T07:26:04;100348.40;;;10.79;77.78
56821;BME280;42702;50.178;20.992;2022-10-28T07:28:32;100346.36;;;10.85;77.74
56821;BME280;42702;50.178;20.992;2022-10-28T07:31:00;100350.66;;;10.95;77.75
56821;BME280;42702;50.178;20.992;2022-10-28T07:33:29;100357.00;;;11.01;77.62
56821;BME280;42702;50.178;20.992;2022-10-28T07:35:58;100364.38;;;11.06;77.94
56821;BME280;42702;50.178;20.992;2022-10-28T07:38:26;100372.95;;;11.09;77.64
56821;BME280;42702;50.178;20.992;2022-10-28T07:40:54;100372.77;;;11.10;77.83
56821;BME280;42702;50.178;20.992;2022-10-28T07:43:22;100369.35;;;11.15;77.99
56821;BME280;42702;50.178;20.992;2022-10-28T07:45:57;100371.86;;;11.23;77.74
56821;BME280;42702;50.178;20.992;2022-10-28T07:48:25;100372.48;;;11.34;77.55
56821;BME280;42702;50.178;20.992;2022-10-28T07:50:53;100372.35;;;11.38;77.69
56821;BME280;42702;50.178;20.992;2022-10-28T07:53:21;100367.34;;;11.43;77.81
56821;BME280;42702;50.178;20.992;2022-10-28T07:56:00;100364.58;;;11.50;77.82
56821;BME280;42702;50.178;20.992;2022-10-28T07:58:29;100363.40;;;11.55;77.77
56821;BME280;42702;50.178;20.992;2022-10-28T08:01:02;100361.52;;;11.60;77.86
56821;BME280;42702;50.178;20.992;2022-10-28T08:03:31;100356.67;;;11.66;77.90
56821;BME280;42702;50.178;20.992;2022-10-28T08:06:11;100358.48;;;11.75;77.62
56821;BME280;42702;50.178;20.992;2022-10-28T08:08:40;100356.24;;;11.79;77.69
56821;BME280;42702;50.178;20.992;2022-10-28T08:11:16;100349.64;;;11.83;77.82
56821;BME280;42702;50.178;20.992;2022-10-28T08:13:46;100344.45;;;11.90;77.97
56821;BME280;42702;50.178;20.992;2022-10-28T08:16:15;100346.97;;;12.00;77.96
56821;BME280;42702;50.178;20.992;2022-10-28T08:18:43;100347.73;;;12.09;77.73
56821;BME280;42702;50.178;20.992;2022-10-28T08:21:13;100346.54;;;12.19;77.68
56821;BME280;42702;50.178;20.992;2022-10-28T08:23:42;100347.84;;;12.32;77.37
56821;BME280;42702;50.178;20.992;2022-10-28T08:26:15;100348.55;;;12.42;77.34
56821;BME280;42702;50.178;20.992;2022-10-28T08:28:43;100347.89;;;12.48;77.23
56821;BME280;42702;50.178;20.992;2022-10-28T08:31:11;100350.89;;;12.57;77.31
56821;BME280;42702;50.178;20.992;2022-10-28T08:33:41;100350.92;;;12.66;77.16
56821;BME280;42702;50.178;20.992;2022-10-28T08:36:14;100344.48;;;12.73;77.06
56821;BME280;42702;50.178;20.992;2022-10-28T08:38:43;100338.02;;;12.83;76.84
56821;BME280;42702;50.178;20.992;2022-10-28T08:50:02;100341.08;;;13.39;76.19
56821;BME280;42702;50.178;20.992;2022-10-28T08:52:38;100341.96;;;13.48;75.52
56821;BME280;42702;50.178;20.992;2022-10-28T08:55:25;100340.89;;;13.57;75.65
56821;BME280;42702;50.178;20.992;2022-10-28T09:00:52;100331.77;;;13.83;74.89
56821;BME280;42702;50.178;20.992;2022-10-28T09:03:23;100332.23;;;13.97;74.80
56821;BME280;42702;50.178;20.992;2022-10-28T09:06:04;100330.64;;;14.08;74.88
56821;BME280;42702;50.178;20.992;2022-10-28T09:08:37;100324.63;;;14.22;74.85
56821;BME280;42702;50.178;20.992;2022-10-28T09:13:45;100321.00;;;14.51;74.78
56821;BME280;42702;50.178;20.992;2022-10-28T09:19:29;100319.13;;;14.77;73.31
56821;BME280;42702;50.178;20.992;2022-10-28T09:22:41;100320.59;;;14.93;73.54
56821;BME280;42702;50.178;20.992;2022-10-28T09:25:30;100319.96;;;15.08;73.38
56821;BME280;42702;50.178;20.992;2022-10-28T09:34:11;100314.44;;;15.40;72.54
56821;BME280;42702;50.178;20.992;2022-10-28T09:36:48;100314.89;;;15.47;71.95
56821;BME280;42702;50.178;20.992;2022-10-28T09:39:23;100313.95;;;15.55;72.27
56821;BME280;42702;50.178;20.992;2022-10-28T09:41:57;100311.77;;;15.64;72.36
56821;BME280;42702;50.178;20.992;2022-10-28T09:44:36;100313.60;;;15.73;71.39
56821;BME280;42702;50.178;20.992;2022-10-28T09:47:15;100309.46;;;15.85;71.50
56821;BME280;42702;50.178;20.992;2022-10-28T09:49:46;100307.09;;;15.92;71.37
56821;BME280;42702;50.178;20.992;2022-10-28T09:52:22;100303.35;;;15.98;70.94
56821;BME280;42702;50.178;20.992;2022-10-28T09:54:53;100304.50;;;16.05;70.95
56821;BME280;42702;50.178;20.992;2022-10-28T09:57:23;100304.94;;;16.13;70.51
56821;BME280;42702;50.178;20.992;2022-10-28T09:59:57;100306.58;;;16.23;70.51
56821;BME280;42702;50.178;20.992;2022-10-28T10:02:32;100304.58;;;16.28;69.76
56821;BME280;42702;50.178;20.992;2022-10-28T10:05:13;100301.29;;;16.37;70.27
56821;BME280;42702;50.178;20.992;2022-10-28T10:08:05;100295.17;;;16.47;70.27
56821;BME280;42702;50.178;20.992;2022-10-28T10:10:42;100297.91;;;16.53;70.07
56821;BME280;42702;50.178;20.992;2022-10-28T10:13:15;100297.27;;;16.61;69.98
56821;BME280;42702;50.178;20.992;2022-10-28T10:15:45;100298.69;;;16.72;69.77
56821;BME280;42702;50.178;20.992;2022-10-28T10:18:32;100301.56;;;16.80;69.25
56821;BME280;42702;50.178;20.992;2022-10-28T10:21:01;100301.54;;;16.82;67.55
56821;BME280;42702;50.178;20.992;2022-10-28T10:23:32;100296.56;;;16.87;68.72
56821;BME280;42702;50.178;20.992;2022-10-28T10:26:07;100292.05;;;16.95;69.18
56821;BME280;42702;50.178;20.992;2022-10-28T10:28:45;100287.00;;;17.03;69.19
56821;BME280;42702;50.178;20.992;2022-10-28T10:31:21;100285.83;;;17.09;68.95
56821;BME280;42702;50.178;20.992;2022-10-28T10:33:54;100288.20;;;17.15;67.92
56821;BME280;42702;50.178;20.992;2022-10-28T10:36:25;100285.14;;;17.19;67.27
56821;BME280;42702;50.178;20.992;2022-10-28T10:39:01;100277.54;;;17.21;66.26
56821;BME280;42702;50.178;20.992;2022-10-28T10:41:40;100273.63;;;17.23;66.56
56821;BME280;42702;50.178;20.992;2022-10-28T10:49:34;100270.70;;;17.49;67.40
56821;BME280;42702;50.178;20.992;2022-10-28T10:52:16;100265.88;;;17.52;65.38
56821;BME280;42702;50.178;20.992;2022-10-28T10:54:58;100264.42;;;17.55;66.08
56821;BME280;42702;50.178;20.992;2022-10-28T10:57:28;100263.10;;;17.60;66.48
56821;BME280;42702;50.178;20.992;2022-10-28T10:59:56;100257.53;;;17.65;66.50
56821;BME280;42702;50.178;20.992;2022-10-28T11:02:33;100262.38;;;17.70;66.38
56821;BME280;42702;50.178;20.992;2022-10-28T11:05:22;100259.65;;;17.74;65.26
56821;BME280;42702;50.178;20.992;2022-10-28T11:07:59;100258.17;;;17.77;65.56
56821;BME280;42702;50.178;20.992;2022-10-28T11:10:32;100260.94;;;17.81;65.26
56821;BME280;42702;50.178;20.992;2022-10-28T11:13:07;100259.27;;;17.85;65.89
56821;BME280;42702;50.178;20.992;2022-10-28T11:16:06;100259.23;;;17.89;65.25
56821;BME280;42702;50.178;20.992;2022-10-28T11:19:14;100255.98;;;17.92;64.99
56821;BME280;42702;50.178;20.992;2022-10-28T11:24:30;100251.52;;;17.95;63.84
56821;BME280;42702;50.178;20.992;2022-10-28T11:30:35;100250.61;;;17.96;65.02
56821;BME280;42702;50.178;20.992;2022-10-28T11:33:15;100245.27;;;17.98;64.81
56821;BME280;42702;50.178;20.992;2022-10-28T11:41:58;100234.38;;;18.05;64.40
56821;BME280;42702;50.178;20.992;2022-10-28T11:50:52;100222.94;;;18.04;63.83
56821;BME280;42702;50.178;20.992;2022-10-28T12:17:18;100198.40;;;17.96;65.02
56821;BME280;42702;50.178;20.992;2022-10-28T12:22:30;100193.67;;;18.11;64.28
56821;BME280;42702;50.178;20.992;2022-10-28T12:25:21;100192.09;;;18.19;64.23
56821;BME280;42702;50.178;20.992;2022-10-28T12:27:54;100189.52;;;18.24;64.28
56821;BME280;42702;50.178;20.992;2022-10-28T12:30:31;100187.66;;;18.27;64.49
56821;BME280;42702;50.178;20.992;2022-10-28T12:39:32;100182.00;;;18.29;63.77
56821;BME280;42702;50.178;20.992;2022-10-28T12:44:31;100178.92;;;18.31;63.65
56821;BME280;42702;50.178;20.992;2022-10-28T12:47:17;100175.35;;;18.33;63.98
56821;BME280;42702;50.178;20.992;2022-10-28T12:50:05;100170.75;;;18.34;64.01
56821;BME280;42702;50.178;20.992;2022-10-28T12:55:56;100165.25;;;18.35;63.95
56821;BME280;42702;50.178;20.992;2022-10-28T12:58:40;100163.52;;;18.33;64.26
56821;BME280;42702;50.178;20.992;2022-10-28T13:01:31;100165.23;;;18.28;64.40
56821;BME280;42702;50.178;20.992;2022-10-28T13:04:01;100162.10;;;18.26;64.38
56821;BME280;42702;50.178;20.992;2022-10-28T13:10:10;100165.27;;;18.18;64.87
56821;BME280;42702;50.178;20.992;2022-10-28T13:13:13;100167.27;;;18.16;64.80
56821;BME280;42702;50.178;20.992;2022-10-28T13:24:33;100167.89;;;18.20;64.34
56821;BME280;42702;50.178;20.992;2022-10-28T13:27:11;100161.17;;;18.21;63.45
56821;BME280;42702;50.178;20.992;2022-10-28T13:29:42;100160.73;;;18.24;63.20
56821;BME280;42702;50.178;20.992;2022-10-28T13:32:39;100155.70;;;18.28;63.16
56821;BME280;42702;50.178;20.992;2022-10-28T13:35:23;100156.18;;;18.30;63.18
56821;BME280;42702;50.178;20.992;2022-10-28T13:37:53;100153.52;;;18.31;63.41
56821;BME280;42702;50.178;20.992;2022-10-28T13:49:34;100158.30;;;18.14;64.15
56821;BME280;42702;50.178;20.992;2022-10-28T13:52:17;100157.38;;;18.09;64.21
56821;BME280;42702;50.178;20.992;2022-10-28T13:59:56;100156.88;;;17.99;64.39
56821;BME280;42702;50.178;20.992;2022-10-28T14:02:35;100156.76;;;17.97;64.36
56821;BME280;42702;50.178;20.992;2022-10-28T14:05:07;100158.20;;;17.96;64.44
56821;BME280;42702;50.178;20.992;2022-10-28T14:07:58;100154.52;;;17.94;64.45
56821;BME280;42702;50.178;20.992;2022-10-28T14:11:05;100153.50;;;17.92;64.54
56821;BME280;42702;50.178;20.992;2022-10-28T14:13:54;100153.04;;;17.90;64.79
56821;BME280;42702;50.178;20.992;2022-10-28T14:16:45;100150.46;;;17.86;64.98
56821;BME280;42702;50.178;20.992;2022-10-28T14:19:16;100152.09;;;17.83;65.19
56821;BME280;42702;50.178;20.992;2022-10-28T14:22:07;100148.27;;;17.81;65.47
56821;BME280;42702;50.178;20.992;2022-10-28T14:24:53;100149.14;;;17.81;65.42
56821;BME280;42702;50.178;20.992;2022-10-28T14:27:40;100147.63;;;17.77;65.81
56821;BME280;42702;50.178;20.992;2022-10-28T14:30:27;100145.25;;;17.73;66.16
56821;BME280;42702;50.178;20.992;2022-10-28T14:32:57;100143.38;;;17.70;66.30
56821;BME280;42702;50.178;20.992;2022-10-28T14:35:38;100145.02;;;17.66;66.52
56821;BME280;42702;50.178;20.992;2022-10-28T14:40:47;100145.21;;;17.58;66.98
56821;BME280;42702;50.178;20.992;2022-10-28T14:46:27;100140.67;;;17.46;67.50
56821;BME280;42702;50.178;20.992;2022-10-28T14:49:24;100139.27;;;17.38;67.71
56821;BME280;42702;50.178;20.992;2022-10-28T14:51:53;100138.17;;;17.31;67.91
56821;BME280;42702;50.178;20.992;2022-10-28T14:54:50;100141.09;;;17.26;68.08
56821;BME280;42702;50.178;20.992;2022-10-28T14:57:36;100144.66;;;17.23;68.24
56821;BME280;42702;50.178;20.992;2022-10-28T15:00:06;100144.61;;;17.16;68.53
56821;BME280;42702;50.178;20.992;2022-10-28T15:02:52;100144.54;;;17.11;68.87
56821;BME280;42702;50.178;20.992;2022-10-28T15:05:21;100147.25;;;17.07;69.04
56821;BME280;42702;50.178;20.992;2022-10-28T15:08:10;100144.00;;;17.02;69.29
56821;BME280;42702;50.178;20.992;2022-10-28T15:10:56;100149.75;;;16.96;69.19
56821;BME280;42702;50.178;20.992;2022-10-28T15:13:25;100148.08;;;16.91;68.94
56821;BME280;42702;50.178;20.992;2022-10-28T15:15:54;100149.01;;;16.88;68.78
56821;BME280;42702;50.178;20.992;2022-10-28T15:18:29;100146.25;;;16.83;68.67
56821;BME280;42702;50.178;20.992;2022-10-28T15:21:12;100145.08;;;16.79;68.64
56821;BME280;42702;50.178;20.992;2022-10-28T15:23:43;100144.46;;;16.74;68.85
56821;BME280;42702;50.178;20.992;2022-10-28T15:26:31;100144.54;;;16.69;68.68
56821;BME280;42702;50.178;20.992;2022-10-28T15:28:59;100145.59;;;16.70;68.65
56821;BME280;42702;50.178;20.992;2022-10-28T15:31:28;100146.35;;;16.67;68.66
56821;BME280;42702;50.178;20.992;2022-10-28T15:33:56;100146.73;;;16.63;68.75
56821;BME280;42702;50.178;20.992;2022-10-28T15:36:25;100146.09;;;16.61;68.70
56821;BME280;42702;50.178;20.992;2022-10-28T15:39:06;100146.99;;;16.59;68.65
56821;BME280;42702;50.178;20.992;2022-10-28T15:41:54;100150.39;;;16.56;68.67
56821;BME280;42702;50.178;20.992;2022-10-28T15:44:43;100147.13;;;16.51;68.55
56821;BME280;42702;50.178;20.992;2022-10-28T15:49:56;100145.69;;;16.42;68.73
56821;BME280;42702;50.178;20.992;2022-10-28T15:52:32;100142.98;;;16.34;68.67
56821;BME280;42702;50.178;20.992;2022-10-28T15:55:25;100144.83;;;16.29;68.74
56821;BME280;42702;50.178;20.992;2022-10-28T16:00:54;100142.77;;;16.26;68.48
56821;BME280;42702;50.178;20.992;2022-10-28T16:03:43;100141.27;;;16.21;68.57
56821;BME280;42702;50.178;20.992;2022-10-28T16:12:10;100147.56;;;16.11;68.57